sensor_id;sensor_type;location;lat;lon;timestamp;P1;durP1;ratioP1;P2;durP2;ratioP2
51602;SDS011;37954;51.980;5.850;2023-05-13T00:00:46;3.13;;;2.83;;
51602;SDS011;37954;51.980;5.850;2023-05-13T00:04:58;2.78;;;2.58;;
51602;SDS011;37954;51.980;5.850;2023-05-13T00:09:10;4.72;;;3.10;;
51602;SDS011;37954;51.980;5.850;2023-05-13T00:13:21;3.65;;;2.90;;
51602;SDS011;37954;51.980;5.850;2023-05-13T00:17:33;5.70;;;2.83;;
51602;SDS011;37954;51.980;5.850;2023-05-13T00:21:45;2.83;;;2.55;;
51602;SDS011;37954;51.980;5.850;2023-05-13T00:26:00;2.63;;;2.42;;
51602;SDS011;37954;51.980;5.850;2023-05-13T00:30:12;4.88;;;2.92;;
51602;SDS011;37954;51.980;5.850;2023-05-13T00:34:23;7.07;;;2.70;;
51602;SDS011;37954;51.980;5.850;2023-05-13T00:38:35;3.20;;;2.90;;
51602;SDS011;37954;51.980;5.850;2023-05-13T00:42:47;3.45;;;2.90;;
51602;SDS011;37954;51.980;5.850;2023-05-13T00:46:59;3.17;;;2.88;;
51602;SDS011;37954;51.980;5.850;2023-05-13T00:51:11;4.10;;;2.60;;
51602;SDS011;37954;51.980;5.850;2023-05-13T00:55:23;3.88;;;3.20;;
51602;SDS011;37954;51.980;5.850;2023-05-13T00:59:34;3.63;;;2.88;;
51602;SDS011;37954;51.980;5.850;2023-05-13T01:04:22;2.95;;;2.67;;
51602;SDS011;37954;51.980;5.850;2023-05-13T01:08:57;5.72;;;3.47;;
51602;SDS011;37954;51.980;5.850;2023-05-13T01:13:16;4.78;;;3.28;;
51602;SDS011;37954;51.980;5.850;2023-05-13T01:17:56;4.57;;;3.17;;
51602;SDS011;37954;51.980;5.850;2023-05-13T01:22:24;3.95;;;3.22;;
51602;SDS011;37954;51.980;5.850;2023-05-13T01:26:36;4.22;;;2.60;;
51602;SDS011;37954;51.980;5.850;2023-05-13T01:30:48;3.63;;;3.03;;
51602;SDS011;37954;51.980;5.850;2023-05-13T01:35:00;3.53;;;3.10;;
51602;SDS011;37954;51.980;5.850;2023-05-13T01:39:13;5.22;;;3.35;;
51602;SDS011;37954;51.980;5.850;2023-05-13T01:43:28;4.00;;;2.90;;
51602;SDS011;37954;51.980;5.850;2023-05-13T01:47:40;3.42;;;3.10;;
51602;SDS011;37954;51.980;5.850;2023-05-13T01:51:52;4.57;;;2.90;;
51602;SDS011;37954;51.980;5.850;2023-05-13T01:56:07;5.97;;;2.80;;
51602;SDS011;37954;51.980;5.850;2023-05-13T02:00:20;4.40;;;3.33;;
51602;SDS011;37954;51.980;5.850;2023-05-13T02:04:33;7.93;;;3.35;;
51602;SDS011;37954;51.980;5.850;2023-05-13T02:08:45;4.35;;;3.42;;
51602;SDS011;37954;51.980;5.850;2023-05-13T02:12:57;4.55;;;3.28;;
51602;SDS011;37954;51.980;5.850;2023-05-13T02:17:09;6.90;;;3.38;;
51602;SDS011;37954;51.980;5.850;2023-05-13T02:21:20;3.55;;;3.17;;
51602;SDS011;37954;51.980;5.850;2023-05-13T02:25:32;5.93;;;2.95;;
51602;SDS011;37954;51.980;5.850;2023-05-13T02:29:44;4.55;;;3.40;;
51602;SDS011;37954;51.980;5.850;2023-05-13T02:33:56;4.18;;;3.47;;
51602;SDS011;37954;51.980;5.850;2023-05-13T02:38:09;4.35;;;3.70;;
51602;SDS011;37954;51.980;5.850;2023-05-13T02:42:21;5.75;;;3.65;;
51602;SDS011;37954;51.980;5.850;2023-05-13T02:46:32;4.68;;;3.40;;
51602;SDS011;37954;51.980;5.850;2023-05-13T02:50:44;5.03;;;3.72;;
51602;SDS011;37954;51.980;5.850;2023-05-13T02:54:56;3.70;;;3.40;;
51602;SDS011;37954;51.980;5.850;2023-05-13T02:59:08;5.65;;;3.75;;
51602;SDS011;37954;51.980;5.850;2023-05-13T03:03:20;6.00;;;3.95;;
51602;SDS011;37954;51.980;5.850;2023-05-13T03:07:32;8.18;;;3.67;;
51602;SDS011;37954;51.980;5.850;2023-05-13T03:11:44;4.95;;;3.60;;
51602;SDS011;37954;51.980;5.850;2023-05-13T03:15:56;4.45;;;3.67;;
51602;SDS011;37954;51.980;5.850;2023-05-13T03:20:08;8.57;;;4.40;;
51602;SDS011;37954;51.980;5.850;2023-05-13T03:24:21;5.50;;;3.55;;
51602;SDS011;37954;51.980;5.850;2023-05-13T03:28:32;5.05;;;3.80;;
51602;SDS011;37954;51.980;5.850;2023-05-13T03:32:45;4.95;;;4.22;;
51602;SDS011;37954;51.980;5.850;2023-05-13T03:36:57;4.78;;;3.92;;
51602;SDS011;37954;51.980;5.850;2023-05-13T03:41:11;4.85;;;4.20;;
51602;SDS011;37954;51.980;5.850;2023-05-13T03:45:23;13.25;;;4.80;;
51602;SDS011;37954;51.980;5.850;2023-05-13T03:49:38;7.18;;;4.97;;
51602;SDS011;37954;51.980;5.850;2023-05-13T03:53:50;5.97;;;4.90;;
51602;SDS011;37954;51.980;5.850;2023-05-13T03:58:14;5.50;;;4.60;;
51602;SDS011;37954;51.980;5.850;2023-05-13T04:02:27;6.32;;;4.80;;
51602;SDS011;37954;51.980;5.850;2023-05-13T04:06:39;6.00;;;4.75;;
51602;SDS011;37954;51.980;5.850;2023-05-13T04:10:52;6.60;;;5.20;;
51602;SDS011;37954;51.980;5.850;2023-05-13T04:15:04;5.95;;;5.00;;
51602;SDS011;37954;51.980;5.850;2023-05-13T04:19:16;6.28;;;5.22;;
51602;SDS011;37954;51.980;5.850;2023-05-13T04:23:28;8.40;;;5.07;;
51602;SDS011;37954;51.980;5.850;2023-05-13T04:27:40;6.90;;;5.03;;
51602;SDS011;37954;51.980;5.850;2023-05-13T04:32:00;6.07;;;5.30;;
51602;SDS011;37954;51.980;5.850;2023-05-13T04:36:12;6.80;;;4.82;;
51602;SDS011;37954;51.980;5.850;2023-05-13T04:40:26;7.40;;;4.93;;
51602;SDS011;37954;51.980;5.850;2023-05-13T04:44:41;9.80;;;5.40;;
51602;SDS011;37954;51.980;5.850;2023-05-13T04:48:53;6.57;;;5.68;;
51602;SDS011;37954;51.980;5.850;2023-05-13T04:53:05;5.18;;;4.68;;
51602;SDS011;37954;51.980;5.850;2023-05-13T04:57:17;6.50;;;5.07;;
51602;SDS011;37954;51.980;5.850;2023-05-13T05:01:29;6.72;;;5.35;;
51602;SDS011;37954;51.980;5.850;2023-05-13T05:05:41;8.15;;;5.30;;
51602;SDS011;37954;51.980;5.850;2023-05-13T05:09:54;10.65;;;5.40;;
51602;SDS011;37954;51.980;5.850;2023-05-13T05:14:07;9.70;;;4.85;;
51602;SDS011;37954;51.980;5.850;2023-05-13T05:18:20;12.15;;;5.03;;
51602;SDS011;37954;51.980;5.850;2023-05-13T05:22:34;5.55;;;4.60;;
51602;SDS011;37954;51.980;5.850;2023-05-13T05:26:46;6.50;;;4.32;;
51602;SDS011;37954;51.980;5.850;2023-05-13T05:30:59;5.30;;;4.53;;
51602;SDS011;37954;51.980;5.850;2023-05-13T05:35:13;6.45;;;4.60;;
51602;SDS011;37954;51.980;5.850;2023-05-13T05:39:27;4.45;;;4.00;;
51602;SDS011;37954;51.980;5.850;2023-05-13T05:43:39;5.43;;;4.30;;
51602;SDS011;37954;51.980;5.850;2023-05-13T05:47:51;5.05;;;4.47;;
51602;SDS011;37954;51.980;5.850;2023-05-13T05:52:05;6.38;;;4.22;;
51602;SDS011;37954;51.980;5.850;2023-05-13T05:56:17;4.60;;;3.72;;
51602;SDS011;37954;51.980;5.850;2023-05-13T06:00:30;6.05;;;4.00;;
51602;SDS011;37954;51.980;5.850;2023-05-13T06:04:42;5.38;;;4.30;;
51602;SDS011;37954;51.980;5.850;2023-05-13T06:08:54;7.00;;;4.25;;
51602;SDS011;37954;51.980;5.850;2023-05-13T06:13:06;6.13;;;4.90;;
51602;SDS011;37954;51.980;5.850;2023-05-13T06:17:18;4.18;;;3.75;;
51602;SDS011;37954;51.980;5.850;2023-05-13T06:21:29;4.68;;;4.13;;
51602;SDS011;37954;51.980;5.850;2023-05-13T06:25:42;7.03;;;3.75;;
51602;SDS011;37954;51.980;5.850;2023-05-13T06:29:53;5.38;;;4.00;;
51602;SDS011;37954;51.980;5.850;2023-05-13T06:34:05;4.43;;;3.70;;
51602;SDS011;37954;51.980;5.850;2023-05-13T06:38:17;3.85;;;3.50;;
51602;SDS011;37954;51.980;5.850;2023-05-13T06:42:31;4.68;;;3.63;;
51602;SDS011;37954;51.980;5.850;2023-05-13T06:46:44;5.90;;;3.67;;
51602;SDS011;37954;51.980;5.850;2023-05-13T06:50:56;3.97;;;3.58;;
51602;SDS011;37954;51.980;5.850;2023-05-13T06:55:08;3.63;;;3.28;;
51602;SDS011;37954;51.980;5.850;2023-05-13T06:59:20;7.07;;;3.47;;
51602;SDS011;37954;51.980;5.850;2023-05-13T07:03:33;4.18;;;3.78;;
51602;SDS011;37954;51.980;5.850;2023-05-13T07:07:44;4.78;;;3.45;;
51602;SDS011;37954;51.980;5.850;2023-05-13T07:11:56;4.30;;;3.53;;
51602;SDS011;37954;51.980;5.850;2023-05-13T07:16:08;4.38;;;3.42;;
51602;SDS011;37954;51.980;5.850;2023-05-13T07:20:19;4.25;;;3.65;;
51602;SDS011;37954;51.980;5.850;2023-05-13T07:24:33;3.78;;;3.47;;
51602;SDS011;37954;51.980;5.850;2023-05-13T07:28:44;7.05;;;3.80;;
51602;SDS011;37954;51.980;5.850;2023-05-13T07:32:56;4.45;;;3.42;;
51602;SDS011;37954;51.980;5.850;2023-05-13T07:37:08;3.95;;;3.28;;
51602;SDS011;37954;51.980;5.850;2023-05-13T07:41:19;3.13;;;2.83;;
51602;SDS011;37954;51.980;5.850;2023-05-13T07:45:31;4.53;;;2.60;;
51602;SDS011;37954;51.980;5.850;2023-05-13T07:49:43;3.53;;;3.03;;
51602;SDS011;37954;51.980;5.850;2023-05-13T07:53:55;6.70;;;2.97;;
51602;SDS011;37954;51.980;5.850;2023-05-13T07:58:07;4.55;;;2.97;;
51602;SDS011;37954;51.980;5.850;2023-05-13T08:02:18;4.07;;;2.78;;
51602;SDS011;37954;51.980;5.850;2023-05-13T08:06:30;3.95;;;3.10;;
51602;SDS011;37954;51.980;5.850;2023-05-13T08:10:43;3.40;;;2.97;;
51602;SDS011;37954;51.980;5.850;2023-05-13T08:14:54;3.63;;;2.90;;
51602;SDS011;37954;51.980;5.850;2023-05-13T08:19:06;2.85;;;2.42;;
51602;SDS011;37954;51.980;5.850;2023-05-13T08:23:18;3.75;;;2.92;;
51602;SDS011;37954;51.980;5.850;2023-05-13T08:27:30;4.25;;;2.70;;
51602;SDS011;37954;51.980;5.850;2023-05-13T08:31:41;2.95;;;2.75;;
51602;SDS011;37954;51.980;5.850;2023-05-13T08:35:53;2.90;;;2.60;;
51602;SDS011;37954;51.980;5.850;2023-05-13T08:40:05;2.72;;;2.53;;
51602;SDS011;37954;51.980;5.850;2023-05-13T08:44:18;2.72;;;2.53;;
51602;SDS011;37954;51.980;5.850;2023-05-13T08:48:32;2.72;;;2.50;;
51602;SDS011;37954;51.980;5.850;2023-05-13T08:52:53;3.50;;;2.40;;
51602;SDS011;37954;51.980;5.850;2023-05-13T08:57:05;2.53;;;2.22;;
51602;SDS011;37954;51.980;5.850;2023-05-13T09:01:17;5.22;;;2.65;;
51602;SDS011;37954;51.980;5.850;2023-05-13T09:05:29;2.67;;;2.30;;
51602;SDS011;37954;51.980;5.850;2023-05-13T09:09:42;14.32;;;2.38;;
51602;SDS011;37954;51.980;5.850;2023-05-13T09:13:55;2.53;;;2.30;;
51602;SDS011;37954;51.980;5.850;2023-05-13T09:18:08;3.45;;;2.40;;
51602;SDS011;37954;51.980;5.850;2023-05-13T09:22:20;2.38;;;2.17;;
51602;SDS011;37954;51.980;5.850;2023-05-13T09:26:33;2.40;;;2.13;;
51602;SDS011;37954;51.980;5.850;2023-05-13T09:30:44;3.03;;;2.72;;
51602;SDS011;37954;51.980;5.850;2023-05-13T09:35:12;2.47;;;2.28;;
51602;SDS011;37954;51.980;5.850;2023-05-13T09:39:30;7.50;;;2.58;;
51602;SDS011;37954;51.980;5.850;2023-05-13T09:43:49;2.78;;;2.35;;
51602;SDS011;37954;51.980;5.850;2023-05-13T09:48:02;2.50;;;2.28;;
51602;SDS011;37954;51.980;5.850;2023-05-13T09:52:15;2.30;;;2.10;;
51602;SDS011;37954;51.980;5.850;2023-05-13T09:56:27;2.90;;;2.63;;
51602;SDS011;37954;51.980;5.850;2023-05-13T10:00:41;4.88;;;2.42;;
51602;SDS011;37954;51.980;5.850;2023-05-13T10:04:54;3.08;;;2.40;;
51602;SDS011;37954;51.980;5.850;2023-05-13T10:09:07;2.28;;;2.08;;
51602;SDS011;37954;51.980;5.850;2023-05-13T10:13:22;2.70;;;2.28;;
51602;SDS011;37954;51.980;5.850;2023-05-13T10:17:34;2.15;;;2.05;;
51602;SDS011;37954;51.980;5.850;2023-05-13T10:21:46;3.40;;;2.15;;
51602;SDS011;37954;51.980;5.850;2023-05-13T10:26:00;3.28;;;2.72;;
51602;SDS011;37954;51.980;5.850;2023-05-13T10:30:13;2.63;;;2.42;;
51602;SDS011;37954;51.980;5.850;2023-05-13T10:39:23;2.40;;;2.20;;
51602;SDS011;37954;51.980;5.850;2023-05-13T10:43:37;2.50;;;2.30;;
51602;SDS011;37954;51.980;5.850;2023-05-13T10:47:49;2.85;;;2.35;;
51602;SDS011;37954;51.980;5.850;2023-05-13T10:52:08;6.00;;;2.38;;
51602;SDS011;37954;51.980;5.850;2023-05-13T10:56:25;2.80;;;2.40;;
51602;SDS011;37954;51.980;5.850;2023-05-13T11:00:39;2.25;;;2.05;;
51602;SDS011;37954;51.980;5.850;2023-05-13T11:04:56;3.22;;;1.90;;
51602;SDS011;37954;51.980;5.850;2023-05-13T11:09:13;4.47;;;2.00;;
51602;SDS011;37954;51.980;5.850;2023-05-13T11:13:36;2.45;;;2.25;;
51602;SDS011;37954;51.980;5.850;2023-05-13T11:17:48;4.72;;;2.40;;
51602;SDS011;37954;51.980;5.850;2023-05-13T11:26:15;2.63;;;2.35;;
51602;SDS011;37954;51.980;5.850;2023-05-13T11:30:27;4.95;;;2.42;;
51602;SDS011;37954;51.980;5.850;2023-05-13T11:34:39;2.58;;;2.38;;
51602;SDS011;37954;51.980;5.850;2023-05-13T11:39:04;2.55;;;2.35;;
51602;SDS011;37954;51.980;5.850;2023-05-13T11:43:18;3.88;;;2.45;;
51602;SDS011;37954;51.980;5.850;2023-05-13T11:47:31;3.60;;;2.38;;
51602;SDS011;37954;51.980;5.850;2023-05-13T11:51:43;7.85;;;2.47;;
51602;SDS011;37954;51.980;5.850;2023-05-13T11:55:55;3.17;;;2.30;;
51602;SDS011;37954;51.980;5.850;2023-05-13T12:00:07;3.90;;;2.28;;
51602;SDS011;37954;51.980;5.850;2023-05-13T12:04:20;2.33;;;2.00;;
51602;SDS011;37954;51.980;5.850;2023-05-13T12:08:42;3.30;;;2.47;;
51602;SDS011;37954;51.980;5.850;2023-05-13T12:12:54;3.15;;;2.85;;
51602;SDS011;37954;51.980;5.850;2023-05-13T12:17:07;2.97;;;2.38;;
51602;SDS011;37954;51.980;5.850;2023-05-13T12:21:19;2.95;;;2.30;;
51602;SDS011;37954;51.980;5.850;2023-05-13T12:25:41;2.45;;;2.25;;
51602;SDS011;37954;51.980;5.850;2023-05-13T12:29:57;2.72;;;2.45;;
51602;SDS011;37954;51.980;5.850;2023-05-13T12:34:09;2.60;;;2.40;;
51602;SDS011;37954;51.980;5.850;2023-05-13T12:38:21;3.50;;;2.45;;
51602;SDS011;37954;51.980;5.850;2023-05-13T12:42:34;14.95;;;2.30;;
51602;SDS011;37954;51.980;5.850;2023-05-13T12:46:53;4.05;;;2.40;;
51602;SDS011;37954;51.980;5.850;2023-05-13T12:51:05;3.00;;;2.40;;
51602;SDS011;37954;51.980;5.850;2023-05-13T12:55:18;3.63;;;1.80;;
51602;SDS011;37954;51.980;5.850;2023-05-13T12:59:29;4.72;;;1.98;;
51602;SDS011;37954;51.980;5.850;2023-05-13T13:03:41;2.80;;;2.45;;
51602;SDS011;37954;51.980;5.850;2023-05-13T13:07:53;2.72;;;2.25;;
51602;SDS011;37954;51.980;5.850;2023-05-13T13:12:05;2.17;;;1.90;;
51602;SDS011;37954;51.980;5.850;2023-05-13T13:16:17;2.97;;;2.08;;
51602;SDS011;37954;51.980;5.850;2023-05-13T13:20:29;2.17;;;1.83;;
51602;SDS011;37954;51.980;5.850;2023-05-13T13:24:40;2.30;;;2.10;;
51602;SDS011;37954;51.980;5.850;2023-05-13T13:28:52;2.13;;;1.90;;
51602;SDS011;37954;51.980;5.850;2023-05-13T13:33:04;2.70;;;2.10;;
51602;SDS011;37954;51.980;5.850;2023-05-13T13:37:15;2.20;;;2.00;;
51602;SDS011;37954;51.980;5.850;2023-05-13T13:41:27;2.25;;;2.05;;
51602;SDS011;37954;51.980;5.850;2023-05-13T13:45:39;1.98;;;1.77;;
51602;SDS011;37954;51.980;5.850;2023-05-13T13:49:50;4.22;;;2.33;;
51602;SDS011;37954;51.980;5.850;2023-05-13T13:54:03;3.38;;;2.17;;
51602;SDS011;37954;51.980;5.850;2023-05-13T13:58:15;3.10;;;2.00;;
51602;SDS011;37954;51.980;5.850;2023-05-13T14:02:26;2.33;;;2.10;;
51602;SDS011;37954;51.980;5.850;2023-05-13T14:06:38;4.38;;;2.33;;
51602;SDS011;37954;51.980;5.850;2023-05-13T14:10:50;3.28;;;2.40;;
51602;SDS011;37954;51.980;5.850;2023-05-13T14:15:02;3.40;;;2.38;;
51602;SDS011;37954;51.980;5.850;2023-05-13T14:19:14;2.83;;;2.45;;
51602;SDS011;37954;51.980;5.850;2023-05-13T14:23:28;6.07;;;2.42;;
51602;SDS011;37954;51.980;5.850;2023-05-13T14:27:40;2.70;;;2.40;;
51602;SDS011;37954;51.980;5.850;2023-05-13T14:31:51;2.85;;;2.38;;
51602;SDS011;37954;51.980;5.850;2023-05-13T14:36:04;3.83;;;2.85;;
51602;SDS011;37954;51.980;5.850;2023-05-13T14:40:16;2.88;;;2.20;;
51602;SDS011;37954;51.980;5.850;2023-05-13T14:44:27;2.30;;;2.10;;
51602;SDS011;37954;51.980;5.850;2023-05-13T14:48:39;3.22;;;2.10;;
51602;SDS011;37954;51.980;5.850;2023-05-13T14:52:51;2.53;;;2.28;;
51602;SDS011;37954;51.980;5.850;2023-05-13T14:57:04;2.70;;;2.50;;
51602;SDS011;37954;51.980;5.850;2023-05-13T15:01:16;2.90;;;2.17;;
51602;SDS011;37954;51.980;5.850;2023-05-13T15:05:27;3.70;;;2.38;;
51602;SDS011;37954;51.980;5.850;2023-05-13T15:09:39;4.50;;;3.08;;
51602;SDS011;37954;51.980;5.850;2023-05-13T15:13:50;4.65;;;2.22;;
51602;SDS011;37954;51.980;5.850;2023-05-13T15:18:04;2.83;;;2.50;;
51602;SDS011;37954;51.980;5.850;2023-05-13T15:22:16;2.47;;;2.28;;
51602;SDS011;37954;51.980;5.850;2023-05-13T15:26:28;3.08;;;2.40;;
51602;SDS011;37954;51.980;5.850;2023-05-13T15:30:41;3.78;;;2.50;;
51602;SDS011;37954;51.980;5.850;2023-05-13T15:34:52;2.67;;;2.25;;
51602;SDS011;37954;51.980;5.850;2023-05-13T15:39:05;3.30;;;2.33;;
51602;SDS011;37954;51.980;5.850;2023-05-13T15:43:17;2.30;;;2.10;;
51602;SDS011;37954;51.980;5.850;2023-05-13T15:47:28;2.33;;;2.13;;
51602;SDS011;37954;51.980;5.850;2023-05-13T15:51:40;2.55;;;2.35;;
51602;SDS011;37954;51.980;5.850;2023-05-13T15:55:53;2.72;;;2.15;;
51602;SDS011;37954;51.980;5.850;2023-05-13T16:00:05;7.13;;;2.40;;
51602;SDS011;37954;51.980;5.850;2023-05-13T16:04:17;3.22;;;2.28;;
51602;SDS011;37954;51.980;5.850;2023-05-13T16:08:29;3.72;;;2.10;;
51602;SDS011;37954;51.980;5.850;2023-05-13T16:12:41;2.65;;;2.10;;
51602;SDS011;37954;51.980;5.850;2023-05-13T16:16:53;2.58;;;2.38;;
51602;SDS011;37954;51.980;5.850;2023-05-13T16:21:07;4.60;;;2.30;;
51602;SDS011;37954;51.980;5.850;2023-05-13T16:25:19;2.95;;;2.03;;
51602;SDS011;37954;51.980;5.850;2023-05-13T16:29:33;2.85;;;2.35;;
51602;SDS011;37954;51.980;5.850;2023-05-13T16:33:44;2.40;;;2.20;;
51602;SDS011;37954;51.980;5.850;2023-05-13T16:37:56;2.33;;;2.08;;
51602;SDS011;37954;51.980;5.850;2023-05-13T16:42:08;7.70;;;2.30;;
51602;SDS011;37954;51.980;5.850;2023-05-13T16:46:20;2.47;;;2.28;;
51602;SDS011;37954;51.980;5.850;2023-05-13T16:50:31;2.42;;;2.20;;
51602;SDS011;37954;51.980;5.850;2023-05-13T16:54:43;2.78;;;1.90;;
51602;SDS011;37954;51.980;5.850;2023-05-13T16:58:55;2.22;;;2.00;;
51602;SDS011;37954;51.980;5.850;2023-05-13T17:03:06;2.20;;;2.00;;
51602;SDS011;37954;51.980;5.850;2023-05-13T17:07:18;3.55;;;2.63;;
51602;SDS011;37954;51.980;5.850;2023-05-13T17:11:29;2.70;;;2.00;;
51602;SDS011;37954;51.980;5.850;2023-05-13T17:16:33;5.18;;;2.55;;
51602;SDS011;37954;51.980;5.850;2023-05-13T17:20:45;2.00;;;1.90;;
51602;SDS011;37954;51.980;5.850;2023-05-13T17:24:57;4.72;;;2.20;;
51602;SDS011;37954;51.980;5.850;2023-05-13T17:29:08;2.83;;;1.88;;
51602;SDS011;37954;51.980;5.850;2023-05-13T17:33:20;3.50;;;2.33;;
51602;SDS011;37954;51.980;5.850;2023-05-13T17:42:35;4.65;;;2.50;;
51602;SDS011;37954;51.980;5.850;2023-05-13T17:46:47;1.95;;;1.83;;
51602;SDS011;37954;51.980;5.850;2023-05-13T17:50:58;4.72;;;2.17;;
51602;SDS011;37954;51.980;5.850;2023-05-13T17:55:10;2.90;;;2.20;;
51602;SDS011;37954;51.980;5.850;2023-05-13T17:59:22;3.22;;;2.28;;
51602;SDS011;37954;51.980;5.850;2023-05-13T18:03:33;2.45;;;2.22;;
51602;SDS011;37954;51.980;5.850;2023-05-13T18:07:45;3.53;;;1.80;;
51602;SDS011;37954;51.980;5.850;2023-05-13T18:11:57;2.55;;;2.17;;
51602;SDS011;37954;51.980;5.850;2023-05-13T18:16:09;2.88;;;1.88;;
51602;SDS011;37954;51.980;5.850;2023-05-13T18:20:21;2.30;;;2.10;;
51602;SDS011;37954;51.980;5.850;2023-05-13T18:24:34;5.97;;;2.38;;
51602;SDS011;37954;51.980;5.850;2023-05-13T18:28:46;2.00;;;1.80;;
51602;SDS011;37954;51.980;5.850;2023-05-13T18:32:58;2.30;;;1.63;;
51602;SDS011;37954;51.980;5.850;2023-05-13T18:37:09;2.42;;;2.17;;
51602;SDS011;37954;51.980;5.850;2023-05-13T18:41:21;3.03;;;2.13;;
51602;SDS011;37954;51.980;5.850;2023-05-13T18:45:33;3.55;;;2.13;;
51602;SDS011;37954;51.980;5.850;2023-05-13T18:49:45;2.33;;;2.13;;
51602;SDS011;37954;51.980;5.850;2023-05-13T18:53:57;2.30;;;2.10;;
51602;SDS011;37954;51.980;5.850;2023-05-13T18:58:09;3.53;;;2.13;;
51602;SDS011;37954;51.980;5.850;2023-05-13T19:02:20;2.88;;;2.25;;
51602;SDS011;37954;51.980;5.850;2023-05-13T19:06:35;3.55;;;2.50;;
51602;SDS011;37954;51.980;5.850;2023-05-13T19:10:48;2.75;;;2.40;;
51602;SDS011;37954;51.980;5.850;2023-05-13T19:15:00;3.63;;;2.08;;
51602;SDS011;37954;51.980;5.850;2023-05-13T19:19:11;3.28;;;2.47;;
51602;SDS011;37954;51.980;5.850;2023-05-13T19:23:23;2.92;;;2.20;;
51602;SDS011;37954;51.980;5.850;2023-05-13T19:27:35;3.17;;;2.50;;
51602;SDS011;37954;51.980;5.850;2023-05-13T19:31:47;3.35;;;2.40;;
51602;SDS011;37954;51.980;5.850;2023-05-13T19:36:01;2.88;;;2.35;;
51602;SDS011;37954;51.980;5.850;2023-05-13T19:40:14;5.80;;;2.47;;
51602;SDS011;37954;51.980;5.850;2023-05-13T19:44:26;3.42;;;2.35;;
51602;SDS011;37954;51.980;5.850;2023-05-13T19:48:42;4.45;;;2.95;;
51602;SDS011;37954;51.980;5.850;2023-05-13T19:52:53;2.47;;;2.28;;
51602;SDS011;37954;51.980;5.850;2023-05-13T19:57:05;3.60;;;2.42;;
51602;SDS011;37954;51.980;5.850;2023-05-13T20:01:17;3.08;;;2.78;;
51602;SDS011;37954;51.980;5.850;2023-05-13T20:05:29;3.22;;;2.70;;
51602;SDS011;37954;51.980;5.850;2023-05-13T20:09:41;2.53;;;2.20;;
51602;SDS011;37954;51.980;5.850;2023-05-13T20:13:53;4.05;;;2.83;;
51602;SDS011;37954;51.980;5.850;2023-05-13T20:18:05;6.72;;;2.53;;
51602;SDS011;37954;51.980;5.850;2023-05-13T20:26:54;3.80;;;2.65;;
51602;SDS011;37954;51.980;5.850;2023-05-13T20:31:06;3.05;;;2.50;;
51602;SDS011;37954;51.980;5.850;2023-05-13T20:35:17;4.20;;;2.70;;
51602;SDS011;37954;51.980;5.850;2023-05-13T20:39:29;3.53;;;2.63;;
51602;SDS011;37954;51.980;5.850;2023-05-13T20:43:41;3.85;;;2.70;;
51602;SDS011;37954;51.980;5.850;2023-05-13T20:47:53;2.75;;;2.45;;
51602;SDS011;37954;51.980;5.850;2023-05-13T20:52:09;3.80;;;2.55;;
51602;SDS011;37954;51.980;5.850;2023-05-13T20:56:21;3.80;;;2.97;;
51602;SDS011;37954;51.980;5.850;2023-05-13T21:00:33;5.93;;;2.67;;
51602;SDS011;37954;51.980;5.850;2023-05-13T21:04:45;3.22;;;2.75;;
51602;SDS011;37954;51.980;5.850;2023-05-13T21:08:56;3.20;;;2.88;;
51602;SDS011;37954;51.980;5.850;2023-05-13T21:13:08;4.75;;;3.05;;
51602;SDS011;37954;51.980;5.850;2023-05-13T21:17:20;9.15;;;3.17;;
51602;SDS011;37954;51.980;5.850;2023-05-13T21:21:34;3.95;;;3.10;;
51602;SDS011;37954;51.980;5.850;2023-05-13T21:25:45;3.45;;;3.05;;
51602;SDS011;37954;51.980;5.850;2023-05-13T21:29:57;5.75;;;2.88;;
51602;SDS011;37954;51.980;5.850;2023-05-13T21:34:09;6.32;;;3.40;;
51602;SDS011;37954;51.980;5.850;2023-05-13T21:38:20;6.88;;;3.22;;
51602;SDS011;37954;51.980;5.850;2023-05-13T21:42:32;8.57;;;3.30;;
51602;SDS011;37954;51.980;5.850;2023-05-13T21:46:44;4.03;;;3.30;;
51602;SDS011;37954;51.980;5.850;2023-05-13T21:50:56;6.70;;;3.38;;
51602;SDS011;37954;51.980;5.850;2023-05-13T21:55:08;5.05;;;3.28;;
51602;SDS011;37954;51.980;5.850;2023-05-13T21:59:20;4.50;;;3.60;;
51602;SDS011;37954;51.980;5.850;2023-05-13T22:03:31;6.05;;;3.47;;
51602;SDS011;37954;51.980;5.850;2023-05-13T22:07:43;4.28;;;3.30;;
51602;SDS011;37954;51.980;5.850;2023-05-13T22:11:55;4.18;;;3.78;;
51602;SDS011;37954;51.980;5.850;2023-05-13T22:16:07;7.95;;;3.83;;
51602;SDS011;37954;51.980;5.850;2023-05-13T22:20:19;5.22;;;3.60;;
51602;SDS011;37954;51.980;5.850;2023-05-13T22:24:31;4.70;;;3.78;;
51602;SDS011;37954;51.980;5.850;2023-05-13T22:28:44;5.93;;;4.15;;
51602;SDS011;37954;51.980;5.850;2023-05-13T22:32:56;5.32;;;3.85;;
51602;SDS011;37954;51.980;5.850;2023-05-13T22:37:08;7.78;;;4.22;;
51602;SDS011;37954;51.980;5.850;2023-05-13T22:41:20;5.55;;;4.10;;
51602;SDS011;37954;51.980;5.850;2023-05-13T22:45:35;5.40;;;4.07;;
51602;SDS011;37954;51.980;5.850;2023-05-13T22:49:47;4.93;;;4.25;;
51602;SDS011;37954;51.980;5.850;2023-05-13T22:53:58;9.10;;;4.38;;
51602;SDS011;37954;51.980;5.850;2023-05-13T22:58:10;6.70;;;4.43;;
51602;SDS011;37954;51.980;5.850;2023-05-13T23:02:22;5.75;;;4.68;;
51602;SDS011;37954;51.980;5.850;2023-05-13T23:06:34;9.77;;;4.30;;
51602;SDS011;37954;51.980;5.850;2023-05-13T23:10:46;5.85;;;4.75;;
51602;SDS011;37954;51.980;5.850;2023-05-13T23:14:58;7.68;;;4.75;;
51602;SDS011;37954;51.980;5.850;2023-05-13T23:19:09;9.02;;;4.82;;
51602;SDS011;37954;51.980;5.850;2023-05-13T23:23:21;9.20;;;4.95;;
51602;SDS011;37954;51.980;5.850;2023-05-13T23:27:33;8.15;;;5.22;;
51602;SDS011;37954;51.980;5.850;2023-05-13T23:31:45;6.93;;;4.53;;
51602;SDS011;37954;51.980;5.850;2023-05-13T23:35:57;6.53;;;5.25;;
51602;SDS011;37954;51.980;5.850;2023-05-13T23:40:08;6.75;;;5.07;;
51602;SDS011;37954;51.980;5.850;2023-05-13T23:44:20;6.63;;;5.00;;
51602;SDS011;37954;51.980;5.850;2023-05-13T23:48:32;7.25;;;5.35;;
51602;SDS011;37954;51.980;5.850;2023-05-13T23:52:43;11.82;;;5.22;;
51602;SDS011;37954;51.980;5.850;2023-05-13T23:56:55;8.95;;;5.28;;
